createdAt,value
2018-05-06T00:01:11.138Z,10.71
2018-05-06T00:03:39.409Z,10.68
2018-05-06T00:06:07.661Z,11.01
2018-05-06T00:08:35.919Z,10.81
2018-05-06T00:11:04.199Z,10.72
2018-05-06T00:13:32.472Z,10.72
2018-05-06T00:16:00.732Z,10.65
2018-05-06T00:18:29.762Z,10.62
2018-05-06T00:20:58.023Z,10.60
2018-05-06T00:23:26.292Z,10.60
2018-05-06T00:25:55.322Z,10.58
2018-05-06T00:28:23.591Z,10.59
2018-05-06T00:30:51.847Z,10.58
2018-05-06T00:33:20.884Z,10.62
2018-05-06T00:35:49.153Z,10.61
2018-05-06T00:38:17.426Z,10.56
2018-05-06T00:40:46.458Z,10.48
2018-05-06T00:43:14.735Z,10.45
2018-05-06T00:45:43.002Z,10.40
2018-05-06T00:48:11.304Z,10.40
2018-05-06T00:50:39.563Z,10.41
2018-05-06T00:53:07.836Z,10.40
2018-05-06T00:55:36.095Z,10.34
2018-05-06T00:58:05.139Z,10.37
2018-05-06T01:00:33.412Z,10.36
2018-05-06T01:03:01.673Z,10.36
2018-05-06T01:05:29.953Z,10.31
2018-05-06T01:07:58.223Z,10.39
2018-05-06T01:10:26.503Z,10.27
2018-05-06T01:12:54.758Z,10.25
2018-05-06T01:15:23.028Z,10.22
2018-05-06T01:17:51.298Z,10.19
2018-05-06T01:20:19.575Z,10.17
2018-05-06T01:22:47.831Z,10.12
2018-05-06T01:25:16.086Z,10.02
2018-05-06T01:27:44.357Z,9.94
2018-05-06T01:30:13.378Z,9.85
2018-05-06T01:32:41.635Z,9.78
2018-05-06T01:35:10.658Z,9.76
2018-05-06T01:37:39.226Z,9.69
2018-05-06T01:40:08.251Z,9.65
2018-05-06T01:42:36.499Z,9.60
2018-05-06T01:45:05.527Z,9.59
2018-05-06T01:47:33.788Z,9.60
2018-05-06T01:50:02.883Z,9.59
2018-05-06T01:52:31.898Z,9.60
2018-05-06T01:55:00.179Z,9.57
2018-05-06T01:57:28.432Z,9.89
2018-05-06T01:59:57.451Z,9.73
2018-05-06T02:02:25.703Z,9.53
2018-05-06T02:04:53.959Z,9.44
2018-05-06T02:07:22.208Z,9.36
2018-05-06T02:09:50.786Z,9.33
2018-05-06T02:12:19.039Z,9.38
2018-05-06T02:14:48.307Z,9.37
2018-05-06T02:17:16.558Z,9.35
2018-05-06T02:19:44.811Z,9.36
2018-05-06T02:22:13.839Z,9.34
2018-05-06T02:24:42.091Z,9.33
2018-05-06T02:27:10.348Z,9.33
2018-05-06T02:29:38.620Z,9.41
2018-05-06T02:32:06.874Z,9.43
2018-05-06T02:34:35.129Z,9.60
2018-05-06T02:37:03.401Z,9.64
2018-05-06T02:39:32.420Z,9.52
2018-05-06T02:42:00.683Z,9.47
2018-05-06T02:44:28.936Z,9.52
2018-05-06T02:46:57.989Z,9.54
2018-05-06T02:49:26.256Z,9.51
2018-05-06T02:51:55.458Z,9.56
2018-05-06T02:54:23.729Z,9.68
2018-05-06T02:56:51.989Z,9.73
2018-05-06T02:59:21.011Z,9.74
2018-05-06T03:01:49.270Z,9.56
2018-05-06T03:04:18.286Z,9.38
2018-05-06T03:06:46.547Z,9.23
2018-05-06T03:09:15.570Z,9.11
2018-05-06T03:11:43.832Z,9.06
2018-05-06T03:14:12.082Z,9.22
2018-05-06T03:16:40.356Z,9.05
2018-05-06T03:19:08.602Z,8.99
2018-05-06T03:21:36.862Z,9.01
2018-05-06T03:24:06.231Z,9.13
2018-05-06T03:26:34.496Z,9.28
2018-05-06T03:29:02.755Z,9.43
2018-05-06T03:31:31.020Z,9.55
2018-05-06T03:33:59.276Z,9.67
2018-05-06T03:36:28.304Z,9.80
2018-05-06T03:38:56.554Z,9.92
2018-05-06T03:41:25.597Z,10.03
2018-05-06T03:43:53.855Z,10.13
2018-05-06T03:46:22.132Z,10.25
2018-05-06T03:48:50.392Z,10.32
2018-05-06T03:51:19.432Z,10.35
2018-05-06T03:53:47.688Z,10.41
2018-05-06T03:59:58.193Z,10.60
2018-05-06T04:02:39.265Z,10.60
2018-05-06T04:05:07.512Z,10.64
2018-05-06T04:07:35.778Z,10.71
2018-05-06T04:10:04.030Z,10.80
2018-05-06T04:12:32.303Z,10.92
2018-05-06T04:15:01.325Z,11.03
2018-05-06T04:17:30.523Z,11.12
2018-05-06T04:19:58.795Z,11.14
2018-05-06T04:22:27.064Z,11.17
2018-05-06T04:24:56.111Z,11.20
2018-05-06T04:27:24.382Z,11.28
2018-05-06T04:29:52.630Z,11.32
2018-05-06T04:32:20.901Z,11.39
2018-05-06T04:34:49.927Z,11.41
2018-05-06T04:37:18.214Z,11.52
2018-05-06T04:39:46.480Z,11.61
2018-05-06T04:42:14.757Z,11.62
2018-05-06T04:44:43.052Z,11.66
2018-05-06T04:47:11.309Z,11.69
2018-05-06T04:49:40.340Z,11.73
2018-05-06T04:52:10.255Z,11.76
2018-05-06T04:54:38.510Z,11.84
2018-05-06T04:57:06.791Z,11.91
2018-05-06T04:59:36.628Z,12.07
2018-05-06T05:02:04.892Z,12.08
2018-05-06T05:04:33.158Z,12.16
2018-05-06T05:07:02.193Z,12.11
2018-05-06T05:09:30.516Z,12.07
2018-05-06T05:11:58.721Z,12.14
2018-05-06T05:14:27.736Z,12.19
2018-05-06T05:16:56.007Z,12.21
2018-05-06T05:19:24.266Z,12.22
2018-05-06T05:21:53.316Z,12.30
2018-05-06T05:24:21.584Z,12.37
2018-05-06T05:26:49.864Z,12.40
2018-05-06T05:29:18.210Z,12.43
2018-05-06T05:31:46.422Z,12.53
2018-05-06T05:34:14.707Z,12.63
2018-05-06T05:36:42.963Z,12.76
2018-05-06T05:39:12.007Z,12.93
2018-05-06T05:41:40.249Z,13.05
2018-05-06T05:44:08.526Z,13.20
2018-05-06T05:46:37.560Z,13.29
2018-05-06T05:49:05.835Z,13.29
2018-05-06T05:51:34.380Z,13.35
2018-05-06T05:54:03.500Z,13.35
2018-05-06T05:56:31.764Z,13.29
2018-05-06T05:59:00.874Z,13.41
2018-05-06T06:01:29.181Z,13.34
2018-05-06T06:03:58.189Z,13.39
2018-05-06T06:06:26.457Z,13.64
2018-05-06T06:08:54.997Z,13.68
2018-05-06T06:11:23.362Z,14.07
2018-05-06T06:13:52.518Z,14.54
2018-05-06T06:16:20.887Z,14.99
2018-05-06T06:18:49.171Z,14.84
2018-05-06T06:21:17.443Z,15.07
2018-05-06T06:23:46.495Z,14.91
2018-05-06T06:26:14.763Z,14.34
2018-05-06T06:28:43.049Z,14.49
2018-05-06T06:31:11.366Z,14.71
2018-05-06T06:33:39.635Z,14.98
2018-05-06T06:36:07.885Z,15.17
2018-05-06T06:38:36.200Z,15.16
2018-05-06T06:41:04.463Z,15.20
2018-05-06T06:43:32.737Z,15.16
2018-05-06T06:46:00.994Z,15.21
2018-05-06T06:48:29.269Z,14.95
2018-05-06T06:50:57.535Z,15.01
2018-05-06T06:53:25.804Z,15.01
2018-05-06T06:55:54.835Z,15.15
2018-05-06T06:58:23.110Z,15.29
2018-05-06T07:00:51.389Z,15.34
2018-05-06T07:03:19.639Z,15.46
2018-05-06T07:05:48.749Z,14.91
2018-05-06T07:08:16.954Z,14.50
2018-05-06T07:10:45.213Z,14.29
2018-05-06T07:13:13.719Z,14.47
2018-05-06T07:15:42.096Z,14.76
2018-05-06T07:18:10.379Z,14.90
2018-05-06T07:20:38.642Z,15.11
2018-05-06T07:23:06.900Z,15.20
2018-05-06T07:25:35.189Z,15.31
2018-05-06T07:28:04.231Z,15.55
2018-05-06T07:30:32.507Z,15.38
2018-05-06T07:33:00.774Z,15.90
2018-05-06T07:35:29.060Z,16.02
2018-05-06T07:37:57.327Z,16.19
2018-05-06T07:40:25.590Z,16.01
2018-05-06T07:42:54.627Z,15.96
2018-05-06T07:45:22.895Z,16.36
2018-05-06T07:47:51.159Z,15.85
2018-05-06T07:50:20.198Z,17.02
2018-05-06T07:52:48.458Z,17.63
2018-05-06T07:55:16.742Z,18.85
2018-05-06T07:57:44.990Z,20.39
2018-05-06T08:00:14.020Z,25.25
2018-05-06T08:02:42.297Z,23.92
2018-05-06T08:05:11.236Z,22.82
2018-05-06T08:07:39.500Z,20.38
2018-05-06T08:10:07.772Z,19.28
2018-05-06T08:12:36.035Z,22.84
2018-05-06T08:15:04.304Z,26.21
2018-05-06T08:17:32.580Z,24.99
2018-05-06T08:20:01.624Z,25.72
2018-05-06T08:22:29.950Z,30.45
2018-05-06T08:24:58.155Z,25.90
2018-05-06T08:27:26.422Z,23.93
2018-05-06T08:29:54.694Z,24.18
2018-05-06T08:32:23.719Z,24.47
2018-05-06T08:34:51.979Z,25.39
2018-05-06T08:37:20.260Z,24.57
2018-05-06T08:39:48.538Z,25.72
2018-05-06T08:42:17.555Z,25.48
2018-05-06T08:44:45.836Z,23.93
2018-05-06T08:47:15.882Z,24.31
2018-05-06T08:49:44.146Z,28.49
2018-05-06T08:52:12.407Z,29.75
2018-05-06T08:54:40.706Z,31.14
2018-05-06T08:57:08.981Z,32.59
2018-05-06T08:59:37.329Z,29.01
2018-05-06T09:02:06.351Z,29.36
2018-05-06T09:04:34.631Z,29.27
2018-05-06T09:07:03.659Z,29.43
2018-05-06T09:09:31.927Z,28.39
2018-05-06T09:12:00.211Z,25.19
2018-05-06T09:14:28.471Z,23.78
2018-05-06T09:16:56.746Z,22.39
2018-05-06T09:19:25.012Z,27.02
2018-05-06T09:21:54.046Z,27.70
2018-05-06T09:24:22.303Z,27.08
2018-05-06T09:26:50.575Z,25.89
2018-05-06T09:29:19.599Z,26.83
2018-05-06T09:31:47.900Z,28.78
2018-05-06T09:34:16.156Z,29.56
2018-05-06T09:36:44.428Z,28.02
2018-05-06T09:39:12.684Z,27.49
2018-05-06T09:41:40.951Z,28.31
2018-05-06T09:44:09.222Z,27.12
2018-05-06T09:46:37.488Z,29.72
2018-05-06T09:49:06.442Z,29.69
2018-05-06T09:51:34.731Z,29.41
2018-05-06T09:54:02.994Z,28.62
2018-05-06T09:56:32.027Z,31.40
2018-05-06T09:59:00.282Z,28.74
2018-05-06T10:01:28.567Z,27.16
2018-05-06T10:03:56.828Z,27.64
2018-05-06T10:06:25.872Z,26.81
2018-05-06T10:08:54.129Z,26.94
2018-05-06T10:11:22.399Z,25.03
2018-05-06T10:13:50.668Z,27.12
2018-05-06T10:16:19.711Z,27.52
2018-05-06T10:18:47.968Z,28.33
2018-05-06T10:21:16.304Z,26.62
2018-05-06T10:23:44.569Z,25.07
2018-05-06T10:26:12.866Z,25.83
2018-05-06T10:28:41.096Z,27.16
2018-05-06T10:31:09.367Z,30.61
2018-05-06T10:33:37.638Z,29.10
2018-05-06T10:36:06.677Z,27.91
2018-05-06T10:38:34.945Z,31.80
2018-05-06T10:41:03.480Z,29.62
2018-05-06T10:43:31.743Z,28.05
2018-05-06T10:46:00.016Z,28.09
2018-05-06T10:48:28.283Z,27.48
2018-05-06T10:50:56.531Z,28.34
2018-05-06T10:53:24.814Z,29.90
2018-05-06T10:55:53.835Z,30.61
2018-05-06T10:58:23.247Z,32.03
2018-05-06T11:00:51.502Z,31.22
2018-05-06T11:03:19.768Z,30.43
2018-05-06T11:05:48.792Z,26.92
2018-05-06T11:08:17.055Z,28.92
2018-05-06T11:10:46.071Z,31.03
2018-05-06T11:13:14.331Z,27.37
2018-05-06T11:15:43.354Z,26.91
2018-05-06T11:18:11.618Z,26.97
2018-05-06T11:20:39.885Z,27.69
2018-05-06T11:23:08.908Z,30.32
2018-05-06T11:25:37.177Z,29.28
2018-05-06T11:28:05.432Z,26.40
2018-05-06T11:30:33.701Z,26.86
2018-05-06T11:33:01.967Z,26.09
2018-05-06T11:35:30.220Z,26.54
2018-05-06T11:37:58.483Z,29.24
2018-05-06T11:40:26.733Z,28.38
2018-05-06T11:42:55.767Z,26.10
2018-05-06T11:45:24.079Z,28.30
2018-05-06T11:47:52.299Z,32.00
2018-05-06T11:50:21.310Z,28.57
2018-05-06T11:52:49.580Z,27.56
2018-05-06T11:55:18.943Z,30.93
2018-05-06T11:57:47.212Z,27.91
2018-05-06T12:00:15.481Z,28.01
2018-05-06T12:02:43.748Z,27.10
2018-05-06T12:05:12.012Z,30.98
2018-05-06T12:07:41.038Z,30.20
2018-05-06T12:10:09.300Z,29.17
2018-05-06T12:12:38.323Z,33.01
2018-05-06T12:15:06.575Z,28.62
2018-05-06T12:17:34.861Z,26.74
2018-05-06T12:20:03.110Z,30.85
2018-05-06T12:22:31.371Z,27.44
2018-05-06T12:24:59.646Z,29.12
2018-05-06T12:27:27.911Z,28.95
2018-05-06T12:29:56.162Z,27.75
2018-05-06T12:32:24.437Z,26.68
2018-05-06T12:34:52.694Z,26.37
2018-05-06T12:37:21.216Z,25.75
2018-05-06T12:39:49.475Z,24.71
2018-05-06T12:42:18.493Z,24.43
2018-05-06T12:44:46.756Z,24.49
2018-05-06T12:47:15.787Z,24.14
2018-05-06T12:49:44.065Z,24.33
2018-05-06T12:52:12.311Z,24.46
2018-05-06T12:54:41.343Z,23.97
2018-05-06T12:57:09.603Z,23.65
2018-05-06T12:59:37.882Z,23.89
2018-05-06T13:02:06.145Z,23.83
2018-05-06T13:04:35.188Z,23.90
2018-05-06T13:07:03.448Z,23.87
2018-05-06T13:09:31.715Z,23.36
2018-05-06T13:12:00.743Z,23.60
2018-05-06T13:14:29.014Z,23.33
2018-05-06T13:16:57.269Z,23.18
2018-05-06T13:19:26.291Z,22.89
2018-05-06T13:21:54.546Z,22.62
2018-05-06T13:24:23.571Z,23.20
2018-05-06T13:26:51.815Z,23.55
2018-05-06T13:29:20.758Z,23.23
2018-05-06T13:31:49.011Z,23.37
2018-05-06T13:34:17.277Z,23.20
2018-05-06T13:36:46.304Z,23.00
2018-05-06T13:39:14.567Z,23.22
2018-05-06T13:41:43.595Z,23.67
2018-05-06T13:44:11.931Z,23.62
2018-05-06T13:46:40.948Z,23.35
2018-05-06T13:49:09.206Z,22.93
2018-05-06T13:51:38.226Z,23.12
2018-05-06T13:54:06.495Z,23.38
2018-05-06T13:56:35.519Z,23.44
2018-05-06T13:59:03.785Z,23.12
2018-05-06T14:01:32.060Z,23.26
2018-05-06T14:04:00.309Z,23.30
2018-05-06T14:06:29.391Z,23.01
2018-05-06T14:08:57.667Z,22.84
2018-05-06T14:11:25.915Z,22.51
2018-05-06T14:13:54.183Z,22.48
2018-05-06T14:16:22.440Z,22.67
2018-05-06T14:18:50.723Z,22.80
2018-05-06T14:21:18.980Z,22.59
2018-05-06T14:23:47.231Z,22.68
2018-05-06T14:26:15.603Z,22.72
2018-05-06T14:28:43.862Z,22.71
2018-05-06T14:31:12.989Z,22.98
2018-05-06T14:33:41.246Z,22.71
2018-05-06T14:36:10.283Z,22.65
2018-05-06T14:38:38.532Z,22.53
2018-05-06T14:41:06.807Z,22.49
2018-05-06T14:43:35.837Z,22.33
2018-05-06T14:46:04.088Z,22.53
2018-05-06T14:48:32.371Z,22.61
2018-05-06T14:51:01.377Z,22.53
2018-05-06T14:53:31.102Z,22.72
2018-05-06T14:55:59.421Z,22.28
2018-05-06T14:58:27.684Z,22.32
2018-05-06T15:00:55.947Z,22.68
2018-05-06T15:03:24.212Z,22.44
2018-05-06T15:05:52.590Z,22.37
2018-05-06T15:08:20.854Z,21.92
2018-05-06T15:10:49.885Z,22.24
2018-05-06T15:13:18.146Z,22.11
2018-05-06T15:15:46.441Z,22.00
2018-05-06T15:18:15.499Z,22.23
2018-05-06T15:20:43.736Z,22.20
2018-05-06T15:23:12.000Z,22.39
2018-05-06T15:25:40.269Z,22.17
2018-05-06T15:28:08.523Z,21.68
2018-05-06T15:30:36.771Z,22.05
2018-05-06T15:33:05.047Z,22.10
2018-05-06T15:35:33.314Z,22.32
2018-05-06T15:38:01.568Z,22.41
2018-05-06T15:40:29.850Z,22.33
2018-05-06T15:42:58.098Z,22.21
2018-05-06T15:45:26.375Z,22.13
2018-05-06T15:47:54.640Z,21.98
2018-05-06T15:50:22.995Z,22.00
2018-05-06T15:52:51.180Z,21.99
2018-05-06T15:55:19.435Z,21.89
2018-05-06T15:57:47.714Z,21.91
2018-05-06T16:00:16.056Z,21.91
2018-05-06T16:03:04.373Z,21.76
2018-05-06T16:05:32.626Z,21.62
2018-05-06T16:08:00.894Z,21.41
2018-05-06T16:10:29.167Z,21.58
2018-05-06T16:12:57.432Z,21.38
2018-05-06T16:15:25.674Z,21.34
2018-05-06T16:17:53.935Z,21.13
2018-05-06T16:20:22.408Z,21.10
2018-05-06T16:22:50.703Z,21.02
2018-05-06T16:25:19.046Z,21.06
2018-05-06T16:27:48.074Z,21.10
2018-05-06T16:30:16.323Z,21.18
2018-05-06T16:32:45.354Z,20.95
2018-05-06T16:35:13.615Z,20.83
2018-05-06T16:37:42.717Z,20.91
2018-05-06T16:40:10.974Z,21.01
2018-05-06T16:42:39.236Z,20.85
2018-05-06T16:45:07.497Z,20.73
2018-05-06T16:47:35.764Z,20.80
2018-05-06T16:50:04.017Z,20.78
2018-05-06T16:52:32.291Z,20.57
2018-05-06T16:55:01.324Z,20.43
2018-05-06T16:57:29.601Z,20.24
2018-05-06T16:59:57.857Z,20.21
2018-05-06T17:02:27.689Z,20.12
2018-05-06T17:04:55.965Z,20.13
2018-05-06T17:07:24.239Z,19.99
2018-05-06T17:09:52.490Z,20.04
2018-05-06T17:12:20.760Z,20.03
2018-05-06T17:14:49.018Z,19.88
2018-05-06T17:17:17.275Z,19.84
2018-05-06T17:19:45.587Z,19.76
2018-05-06T17:22:14.558Z,19.73
2018-05-06T17:24:42.820Z,19.66
2018-05-06T17:27:11.072Z,19.47
2018-05-06T17:29:39.344Z,19.42
2018-05-06T17:32:07.591Z,19.42
2018-05-06T17:34:36.342Z,19.26
2018-05-06T17:37:05.372Z,19.25
2018-05-06T17:39:33.755Z,19.21
2018-05-06T17:42:02.007Z,19.03
2018-05-06T17:44:30.278Z,18.99
2018-05-06T17:46:59.302Z,18.94
2018-05-06T17:49:27.564Z,18.78
2018-05-06T17:51:56.586Z,18.61
2018-05-06T17:54:26.086Z,18.73
2018-05-06T17:56:54.352Z,18.57
2018-05-06T17:59:22.624Z,18.56
2018-05-06T18:01:51.647Z,18.42
2018-05-06T18:04:19.915Z,18.24
2018-05-06T18:06:48.474Z,18.13
2018-05-06T18:09:16.787Z,18.11
2018-05-06T18:11:45.064Z,18.06
2018-05-06T18:14:13.396Z,17.80
2018-05-06T18:16:41.658Z,17.80
2018-05-06T18:19:09.921Z,17.49
2018-05-06T18:21:38.184Z,17.53
2018-05-06T18:24:07.287Z,17.37
2018-05-06T18:26:35.473Z,17.21
2018-05-06T18:29:03.791Z,17.16
2018-05-06T18:31:32.018Z,17.14
2018-05-06T18:34:01.250Z,16.92
2018-05-06T18:36:29.504Z,16.99
2018-05-06T18:38:58.611Z,16.76
2018-05-06T18:41:26.879Z,16.54
2018-05-06T18:43:55.902Z,16.33
2018-05-06T18:46:24.203Z,16.18
2018-05-06T18:48:52.447Z,15.98
2018-05-06T18:51:20.716Z,15.74
2018-05-06T18:53:49.735Z,15.50
2018-05-06T18:56:18.015Z,15.20
2018-05-06T18:58:46.272Z,14.90
2018-05-06T19:01:15.309Z,14.93
2018-05-06T19:03:43.567Z,15.05
2018-05-06T19:06:11.835Z,15.03
2018-05-06T19:08:40.867Z,14.99
2018-05-06T19:11:09.139Z,14.69
2018-05-06T19:13:37.402Z,14.61
2018-05-06T19:16:05.670Z,14.46
2018-05-06T19:18:34.688Z,14.27
2018-05-06T19:21:02.951Z,14.08
2018-05-06T19:23:31.971Z,13.90
2018-05-06T19:26:00.255Z,13.75
2018-05-06T19:28:28.515Z,13.55
2018-05-06T19:30:57.542Z,13.44
2018-05-06T19:33:25.801Z,13.33
2018-05-06T19:35:56.083Z,13.25
2018-05-06T19:38:24.340Z,13.11
2018-05-06T19:40:52.613Z,12.90
2018-05-06T19:43:20.863Z,12.74
2018-05-06T19:45:51.138Z,12.67
2018-05-06T19:48:19.651Z,12.55
2018-05-06T19:50:47.910Z,12.42
2018-05-06T19:53:16.174Z,12.30
2018-05-06T19:55:45.696Z,12.23
2018-05-06T19:58:14.046Z,12.21
2018-05-06T20:00:42.315Z,12.13
2018-05-06T20:03:10.559Z,12.15
2018-05-06T20:05:39.138Z,12.01
2018-05-06T20:08:07.398Z,11.96
2018-05-06T20:10:35.670Z,12.06
2018-05-06T20:13:03.939Z,12.03
2018-05-06T20:15:32.219Z,12.43
2018-05-06T20:18:00.475Z,12.21
2018-05-06T20:20:29.534Z,12.14
2018-05-06T20:22:57.790Z,12.20
2018-05-06T20:25:26.066Z,12.30
2018-05-06T20:27:54.347Z,12.55
2018-05-06T20:30:22.620Z,12.70
2018-05-06T20:32:50.886Z,12.76
2018-05-06T20:35:19.152Z,12.92
2018-05-06T20:37:48.167Z,12.89
2018-05-06T20:40:16.443Z,12.89
2018-05-06T20:42:44.699Z,12.85
2018-05-06T20:45:12.968Z,13.01
2018-05-06T20:47:41.236Z,12.89
2018-05-06T20:50:09.489Z,12.58
2018-05-06T20:52:37.757Z,13.03
2018-05-06T20:55:06.024Z,13.29
2018-05-06T20:57:34.295Z,13.08
2018-05-06T21:00:03.308Z,13.03
2018-05-06T21:02:31.571Z,13.14
2018-05-06T21:05:00.608Z,12.96
2018-05-06T21:07:28.886Z,12.88
2018-05-06T21:09:57.142Z,12.95
2018-05-06T21:12:25.426Z,12.77
2018-05-06T21:14:53.678Z,12.83
2018-05-06T21:17:21.944Z,12.91
2018-05-06T21:19:50.202Z,13.04
2018-05-06T21:22:18.468Z,13.09
2018-05-06T21:24:46.732Z,13.32
2018-05-06T21:27:15.746Z,13.26
2018-05-06T21:29:43.998Z,13.31
2018-05-06T21:32:13.044Z,13.25
2018-05-06T21:34:41.327Z,13.23
2018-05-06T21:37:10.635Z,13.25
2018-05-06T21:39:38.913Z,13.40
2018-05-06T21:42:07.161Z,13.34
2018-05-06T21:44:35.411Z,13.42
2018-05-06T21:47:04.448Z,13.48
2018-05-06T21:49:32.706Z,13.14
2018-05-06T21:52:01.750Z,12.99
2018-05-06T21:54:30.074Z,13.01
2018-05-06T21:56:58.287Z,13.05
2018-05-06T21:59:26.535Z,12.68
2018-05-06T22:01:55.567Z,12.92
2018-05-06T22:04:23.819Z,13.10
2018-05-06T22:06:52.849Z,13.01
2018-05-06T22:09:21.119Z,12.81
2018-05-06T22:11:49.363Z,12.73
2018-05-06T22:14:18.393Z,12.50
2018-05-06T22:16:46.680Z,12.90
2018-05-06T22:19:14.930Z,12.89
2018-05-06T22:21:43.972Z,12.89
2018-05-06T22:24:12.259Z,12.64
2018-05-06T22:26:40.514Z,12.59
2018-05-06T22:29:08.776Z,12.74
2018-05-06T22:31:37.816Z,12.81
2018-05-06T22:34:06.094Z,12.76
2018-05-06T22:36:34.360Z,12.47
2018-05-06T22:39:02.629Z,12.34
2018-05-06T22:41:30.952Z,12.44
2018-05-06T22:43:59.143Z,12.30
2018-05-06T22:46:27.435Z,12.24
2018-05-06T22:48:55.705Z,12.25
2018-05-06T22:51:23.960Z,12.05
2018-05-06T22:53:52.292Z,11.79
2018-05-06T22:56:20.542Z,12.12
2018-05-06T22:58:48.887Z,12.12
2018-05-06T23:01:17.146Z,12.26
2018-05-06T23:03:45.424Z,12.13
2018-05-06T23:06:14.459Z,12.42
2018-05-06T23:08:42.731Z,12.44
2018-05-06T23:11:11.058Z,12.42
2018-05-06T23:13:40.007Z,12.68
2018-05-06T23:16:08.267Z,12.86
2018-05-06T23:18:36.549Z,12.71
2018-05-06T23:21:04.811Z,12.66
2018-05-06T23:23:33.848Z,12.74
2018-05-06T23:26:02.115Z,12.61
2018-05-06T23:28:30.386Z,12.22
2018-05-06T23:30:58.648Z,12.27
2018-05-06T23:33:27.687Z,11.97
2018-05-06T23:35:56.001Z,12.01
2018-05-06T23:38:24.219Z,11.84
2018-05-06T23:40:53.248Z,11.96
2018-05-06T23:43:21.525Z,11.68
2018-05-06T23:45:49.770Z,12.07
2018-05-06T23:48:18.811Z,11.53
2018-05-06T23:50:47.067Z,11.25
2018-05-06T23:53:15.331Z,11.04
2018-05-06T23:55:44.350Z,10.89
2018-05-06T23:58:12.620Z,10.71
